sensor_id;sensor_type;location;lat;lon;timestamp;temperature;humidity
55634;DHT22;41504;53.162;6.788;2022-12-16T00:01:24;0.90;91.70
55634;DHT22;41504;53.162;6.788;2022-12-16T00:03:52;0.90;91.80
55634;DHT22;41504;53.162;6.788;2022-12-16T00:06:20;0.80;91.80
55634;DHT22;41504;53.162;6.788;2022-12-16T00:08:46;0.80;91.80
55634;DHT22;41504;53.162;6.788;2022-12-16T00:11:12;0.80;91.80
55634;DHT22;41504;53.162;6.788;2022-12-16T00:13:38;0.70;91.90
55634;DHT22;41504;53.162;6.788;2022-12-16T00:16:10;0.70;92.00
55634;DHT22;41504;53.162;6.788;2022-12-16T00:18:37;0.60;92.00
55634;DHT22;41504;53.162;6.788;2022-12-16T00:21:03;0.80;92.10
55634;DHT22;41504;53.162;6.788;2022-12-16T00:23:30;0.70;92.10
55634;DHT22;41504;53.162;6.788;2022-12-16T00:25:56;0.70;92.10
55634;DHT22;41504;53.162;6.788;2022-12-16T00:28:22;0.70;92.10
55634;DHT22;41504;53.162;6.788;2022-12-16T00:30:50;0.70;92.10
55634;DHT22;41504;53.162;6.788;2022-12-16T00:33:17;0.70;92.10
55634;DHT22;41504;53.162;6.788;2022-12-16T00:35:43;0.70;92.30
55634;DHT22;41504;53.162;6.788;2022-12-16T00:38:09;0.70;92.10
55634;DHT22;41504;53.162;6.788;2022-12-16T00:40:35;0.80;92.20
55634;DHT22;41504;53.162;6.788;2022-12-16T00:43:01;0.80;92.10
55634;DHT22;41504;53.162;6.788;2022-12-16T00:45:26;1.20;92.20
55634;DHT22;41504;53.162;6.788;2022-12-16T00:47:52;0.80;92.10
55634;DHT22;41504;53.162;6.788;2022-12-16T00:50:18;0.80;92.10
55634;DHT22;41504;53.162;6.788;2022-12-16T00:52:48;0.90;92.10
55634;DHT22;41504;53.162;6.788;2022-12-16T00:55:15;0.90;92.10
55634;DHT22;41504;53.162;6.788;2022-12-16T00:57:40;0.90;92.20
55634;DHT22;41504;53.162;6.788;2022-12-16T01:00:07;0.90;92.20
55634;DHT22;41504;53.162;6.788;2022-12-16T01:02:39;0.90;92.20
55634;DHT22;41504;53.162;6.788;2022-12-16T01:05:05;0.90;92.30
55634;DHT22;41504;53.162;6.788;2022-12-16T01:07:31;0.90;92.20
55634;DHT22;41504;53.162;6.788;2022-12-16T01:09:57;0.90;92.30
55634;DHT22;41504;53.162;6.788;2022-12-16T01:12:23;0.90;92.20
55634;DHT22;41504;53.162;6.788;2022-12-16T01:14:49;1.00;92.20
55634;DHT22;41504;53.162;6.788;2022-12-16T01:17:14;1.00;92.20
55634;DHT22;41504;53.162;6.788;2022-12-16T01:19:40;1.00;92.20
55634;DHT22;41504;53.162;6.788;2022-12-16T01:22:06;1.00;92.20
55634;DHT22;41504;53.162;6.788;2022-12-16T01:24:31;1.00;92.20
55634;DHT22;41504;53.162;6.788;2022-12-16T01:26:57;1.00;92.20
55634;DHT22;41504;53.162;6.788;2022-12-16T01:29:23;1.00;92.20
55634;DHT22;41504;53.162;6.788;2022-12-16T01:31:49;1.00;92.30
55634;DHT22;41504;53.162;6.788;2022-12-16T01:34:16;1.10;92.30
55634;DHT22;41504;53.162;6.788;2022-12-16T01:36:42;1.10;92.20
55634;DHT22;41504;53.162;6.788;2022-12-16T01:39:09;1.20;92.20
55634;DHT22;41504;53.162;6.788;2022-12-16T01:41:36;1.20;92.20
55634;DHT22;41504;53.162;6.788;2022-12-16T01:44:15;1.20;92.20
55634;DHT22;41504;53.162;6.788;2022-12-16T01:46:49;1.20;92.10
55634;DHT22;41504;53.162;6.788;2022-12-16T01:49:37;1.20;92.10
55634;DHT22;41504;53.162;6.788;2022-12-16T01:52:08;1.20;92.10
55634;DHT22;41504;53.162;6.788;2022-12-16T01:54:51;1.30;92.40
55634;DHT22;41504;53.162;6.788;2022-12-16T01:57:25;1.30;92.10
55634;DHT22;41504;53.162;6.788;2022-12-16T01:59:53;1.30;92.10
55634;DHT22;41504;53.162;6.788;2022-12-16T02:02:19;1.30;92.10
55634;DHT22;41504;53.162;6.788;2022-12-16T02:04:46;1.40;92.10
55634;DHT22;41504;53.162;6.788;2022-12-16T02:07:31;1.40;92.10
55634;DHT22;41504;53.162;6.788;2022-12-16T02:09:57;1.40;92.10
55634;DHT22;41504;53.162;6.788;2022-12-16T02:12:44;1.40;92.20
55634;DHT22;41504;53.162;6.788;2022-12-16T02:15:33;1.40;92.20
55634;DHT22;41504;53.162;6.788;2022-12-16T02:39:59;1.60;91.80
55634;DHT22;41504;53.162;6.788;2022-12-16T02:42:35;1.70;91.80
55634;DHT22;41504;53.162;6.788;2022-12-16T02:45:06;1.80;91.90
55634;DHT22;41504;53.162;6.788;2022-12-16T02:47:35;1.80;91.60
55634;DHT22;41504;53.162;6.788;2022-12-16T02:50:01;1.80;91.60
55634;DHT22;41504;53.162;6.788;2022-12-16T02:52:32;2.10;91.70
55634;DHT22;41504;53.162;6.788;2022-12-16T02:55:02;1.80;91.50
55634;DHT22;41504;53.162;6.788;2022-12-16T02:57:49;1.90;91.50
55634;DHT22;41504;53.162;6.788;2022-12-16T03:00:21;1.90;91.50
55634;DHT22;41504;53.162;6.788;2022-12-16T03:03:45;1.90;91.50
55634;DHT22;41504;53.162;6.788;2022-12-16T03:05:53;1.90;91.40
55634;DHT22;41504;53.162;6.788;2022-12-16T03:08:30;2.00;91.40
55634;DHT22;41504;53.162;6.788;2022-12-16T03:11:04;2.00;91.30
55634;DHT22;41504;53.162;6.788;2022-12-16T03:13:36;2.00;91.20
55634;DHT22;41504;53.162;6.788;2022-12-16T03:16:05;2.00;91.10
55634;DHT22;41504;53.162;6.788;2022-12-16T03:18:33;2.00;91.30
55634;DHT22;41504;53.162;6.788;2022-12-16T03:21:03;2.00;91.10
55634;DHT22;41504;53.162;6.788;2022-12-16T03:23:41;2.00;91.20
55634;DHT22;41504;53.162;6.788;2022-12-16T03:29:03;2.00;91.20
55634;DHT22;41504;53.162;6.788;2022-12-16T03:31:40;2.10;91.30
55634;DHT22;41504;53.162;6.788;2022-12-16T03:34:12;2.10;91.30
55634;DHT22;41504;53.162;6.788;2022-12-16T03:36:39;2.10;91.30
55634;DHT22;41504;53.162;6.788;2022-12-16T03:39:07;2.10;91.40
55634;DHT22;41504;53.162;6.788;2022-12-16T03:41:33;2.10;91.50
55634;DHT22;41504;53.162;6.788;2022-12-16T03:44:00;2.10;91.80
55634;DHT22;41504;53.162;6.788;2022-12-16T03:46:26;2.10;91.70
55634;DHT22;41504;53.162;6.788;2022-12-16T03:48:52;2.10;91.80
55634;DHT22;41504;53.162;6.788;2022-12-16T03:51:18;2.10;91.80
55634;DHT22;41504;53.162;6.788;2022-12-16T03:53:44;2.10;91.70
55634;DHT22;41504;53.162;6.788;2022-12-16T03:56:11;2.20;92.00
55634;DHT22;41504;53.162;6.788;2022-12-16T03:58:38;2.10;92.10
55634;DHT22;41504;53.162;6.788;2022-12-16T04:01:09;2.90;92.30
55634;DHT22;41504;53.162;6.788;2022-12-16T04:03:36;2.10;92.20
55634;DHT22;41504;53.162;6.788;2022-12-16T04:06:02;2.10;92.10
55634;DHT22;41504;53.162;6.788;2022-12-16T04:08:28;2.20;92.20
55634;DHT22;41504;53.162;6.788;2022-12-16T04:10:54;2.10;92.50
55634;DHT22;41504;53.162;6.788;2022-12-16T04:13:38;2.00;92.40
55634;DHT22;41504;53.162;6.788;2022-12-16T04:16:25;2.00;92.40
55634;DHT22;41504;53.162;6.788;2022-12-16T04:19:19;1.90;92.40
55634;DHT22;41504;53.162;6.788;2022-12-16T04:22:04;1.80;92.50
55634;DHT22;41504;53.162;6.788;2022-12-16T04:24:48;1.90;92.60
55634;DHT22;41504;53.162;6.788;2022-12-16T04:27:14;1.70;92.70
55634;DHT22;41504;53.162;6.788;2022-12-16T04:29:49;1.70;92.60
55634;DHT22;41504;53.162;6.788;2022-12-16T04:32:33;1.70;92.70
55634;DHT22;41504;53.162;6.788;2022-12-16T04:35:17;1.70;92.80
55634;DHT22;41504;53.162;6.788;2022-12-16T04:38:02;1.70;92.90
55634;DHT22;41504;53.162;6.788;2022-12-16T04:40:46;1.60;92.70
55634;DHT22;41504;53.162;6.788;2022-12-16T04:43:30;1.60;92.90
55634;DHT22;41504;53.162;6.788;2022-12-16T04:46:15;1.60;92.70
55634;DHT22;41504;53.162;6.788;2022-12-16T04:48:59;1.60;92.70
55634;DHT22;41504;53.162;6.788;2022-12-16T04:51:43;1.60;92.80
55634;DHT22;41504;53.162;6.788;2022-12-16T04:54:27;1.50;92.70
55634;DHT22;41504;53.162;6.788;2022-12-16T04:57:11;1.60;92.70
55634;DHT22;41504;53.162;6.788;2022-12-16T04:59:55;1.60;92.70
55634;DHT22;41504;53.162;6.788;2022-12-16T05:02:39;1.50;92.70
55634;DHT22;41504;53.162;6.788;2022-12-16T05:05:23;1.40;92.70
55634;DHT22;41504;53.162;6.788;2022-12-16T05:08:07;1.40;92.80
55634;DHT22;41504;53.162;6.788;2022-12-16T05:10:51;1.30;92.90
55634;DHT22;41504;53.162;6.788;2022-12-16T05:13:35;1.60;92.80
55634;DHT22;41504;53.162;6.788;2022-12-16T05:16:20;1.30;92.80
55634;DHT22;41504;53.162;6.788;2022-12-16T05:19:04;1.40;92.80
55634;DHT22;41504;53.162;6.788;2022-12-16T05:21:48;1.40;92.80
55634;DHT22;41504;53.162;6.788;2022-12-16T05:24:32;1.30;92.80
55634;DHT22;41504;53.162;6.788;2022-12-16T05:27:20;1.20;92.80
55634;DHT22;41504;53.162;6.788;2022-12-16T05:30:05;1.20;92.80
55634;DHT22;41504;53.162;6.788;2022-12-16T05:32:49;1.20;92.80
55634;DHT22;41504;53.162;6.788;2022-12-16T05:35:33;1.20;92.90
55634;DHT22;41504;53.162;6.788;2022-12-16T05:38:17;1.20;92.90
55634;DHT22;41504;53.162;6.788;2022-12-16T05:41:02;1.20;92.80
55634;DHT22;41504;53.162;6.788;2022-12-16T05:43:46;1.30;92.80
55634;DHT22;41504;53.162;6.788;2022-12-16T05:46:30;1.30;92.70
55634;DHT22;41504;53.162;6.788;2022-12-16T05:49:14;1.30;92.70
55634;DHT22;41504;53.162;6.788;2022-12-16T05:51:58;1.40;92.60
55634;DHT22;41504;53.162;6.788;2022-12-16T05:54:42;1.20;92.60
55634;DHT22;41504;53.162;6.788;2022-12-16T05:57:26;1.20;92.70
55634;DHT22;41504;53.162;6.788;2022-12-16T06:00:11;1.50;92.70
55634;DHT22;41504;53.162;6.788;2022-12-16T06:02:55;1.10;92.60
55634;DHT22;41504;53.162;6.788;2022-12-16T06:05:40;1.10;92.60
55634;DHT22;41504;53.162;6.788;2022-12-16T06:08:24;1.10;92.60
55634;DHT22;41504;53.162;6.788;2022-12-16T06:11:08;1.10;92.60
55634;DHT22;41504;53.162;6.788;2022-12-16T06:13:53;1.20;92.70
55634;DHT22;41504;53.162;6.788;2022-12-16T06:16:37;1.20;92.90
55634;DHT22;41504;53.162;6.788;2022-12-16T06:19:21;1.20;92.70
55634;DHT22;41504;53.162;6.788;2022-12-16T06:22:05;1.20;92.60
55634;DHT22;41504;53.162;6.788;2022-12-16T06:24:49;1.20;92.60
55634;DHT22;41504;53.162;6.788;2022-12-16T06:27:33;1.20;92.60
55634;DHT22;41504;53.162;6.788;2022-12-16T06:30:17;1.20;92.60
55634;DHT22;41504;53.162;6.788;2022-12-16T06:33:01;1.20;92.60
55634;DHT22;41504;53.162;6.788;2022-12-16T06:35:45;1.20;92.60
55634;DHT22;41504;53.162;6.788;2022-12-16T06:38:30;1.20;92.50
55634;DHT22;41504;53.162;6.788;2022-12-16T06:41:17;1.30;92.60
55634;DHT22;41504;53.162;6.788;2022-12-16T06:44:01;1.30;92.60
55634;DHT22;41504;53.162;6.788;2022-12-16T06:46:45;1.20;92.50
55634;DHT22;41504;53.162;6.788;2022-12-16T06:49:29;1.30;92.60
55634;DHT22;41504;53.162;6.788;2022-12-16T06:52:13;1.30;92.50
55634;DHT22;41504;53.162;6.788;2022-12-16T06:55:04;1.20;92.50
55634;DHT22;41504;53.162;6.788;2022-12-16T06:57:56;1.20;92.50
55634;DHT22;41504;53.162;6.788;2022-12-16T07:00:40;1.20;92.50
55634;DHT22;41504;53.162;6.788;2022-12-16T07:03:24;1.20;92.50
55634;DHT22;41504;53.162;6.788;2022-12-16T07:06:08;1.20;92.50
55634;DHT22;41504;53.162;6.788;2022-12-16T07:08:52;1.20;92.50
55634;DHT22;41504;53.162;6.788;2022-12-16T07:11:37;1.20;92.50
55634;DHT22;41504;53.162;6.788;2022-12-16T07:14:21;1.20;92.50
55634;DHT22;41504;53.162;6.788;2022-12-16T07:17:08;1.30;92.50
55634;DHT22;41504;53.162;6.788;2022-12-16T07:19:52;1.20;92.50
55634;DHT22;41504;53.162;6.788;2022-12-16T07:22:39;1.20;92.50
55634;DHT22;41504;53.162;6.788;2022-12-16T07:25:25;1.20;92.50
55634;DHT22;41504;53.162;6.788;2022-12-16T07:28:09;1.20;92.50
55634;DHT22;41504;53.162;6.788;2022-12-16T07:30:53;1.20;92.50
55634;DHT22;41504;53.162;6.788;2022-12-16T07:33:37;1.20;92.50
55634;DHT22;41504;53.162;6.788;2022-12-16T07:36:24;1.20;92.50
55634;DHT22;41504;53.162;6.788;2022-12-16T07:39:08;1.20;92.50
55634;DHT22;41504;53.162;6.788;2022-12-16T07:41:53;1.20;92.50
55634;DHT22;41504;53.162;6.788;2022-12-16T07:44:37;1.20;92.50
55634;DHT22;41504;53.162;6.788;2022-12-16T07:47:24;1.20;92.50
55634;DHT22;41504;53.162;6.788;2022-12-16T07:50:08;1.20;92.50
55634;DHT22;41504;53.162;6.788;2022-12-16T07:53:02;1.20;92.50
55634;DHT22;41504;53.162;6.788;2022-12-16T07:55:46;1.20;92.50
55634;DHT22;41504;53.162;6.788;2022-12-16T07:58:30;1.20;92.50
55634;DHT22;41504;53.162;6.788;2022-12-16T08:01:14;1.20;92.40
55634;DHT22;41504;53.162;6.788;2022-12-16T08:03:59;1.30;92.50
55634;DHT22;41504;53.162;6.788;2022-12-16T08:06:44;1.30;92.50
55634;DHT22;41504;53.162;6.788;2022-12-16T08:09:28;1.30;92.50
55634;DHT22;41504;53.162;6.788;2022-12-16T08:12:12;1.30;92.50
55634;DHT22;41504;53.162;6.788;2022-12-16T08:14:56;1.30;92.50
55634;DHT22;41504;53.162;6.788;2022-12-16T08:17:48;1.30;92.50
55634;DHT22;41504;53.162;6.788;2022-12-16T08:20:39;1.30;92.50
55634;DHT22;41504;53.162;6.788;2022-12-16T08:23:23;1.30;92.50
55634;DHT22;41504;53.162;6.788;2022-12-16T08:26:07;1.30;92.40
55634;DHT22;41504;53.162;6.788;2022-12-16T08:28:51;1.30;92.40
55634;DHT22;41504;53.162;6.788;2022-12-16T08:31:38;1.30;92.50
55634;DHT22;41504;53.162;6.788;2022-12-16T08:34:23;1.70;92.50
55634;DHT22;41504;53.162;6.788;2022-12-16T08:37:10;1.30;92.40
55634;DHT22;41504;53.162;6.788;2022-12-16T08:39:58;1.30;92.40
55634;DHT22;41504;53.162;6.788;2022-12-16T08:42:42;1.30;92.40
55634;DHT22;41504;53.162;6.788;2022-12-16T08:45:27;1.20;92.30
55634;DHT22;41504;53.162;6.788;2022-12-16T08:48:11;1.40;92.30
55634;DHT22;41504;53.162;6.788;2022-12-16T08:51:01;1.30;92.30
55634;DHT22;41504;53.162;6.788;2022-12-16T08:53:46;1.30;92.30
55634;DHT22;41504;53.162;6.788;2022-12-16T08:56:30;1.30;92.30
55634;DHT22;41504;53.162;6.788;2022-12-16T08:59:17;1.30;92.30
55634;DHT22;41504;53.162;6.788;2022-12-16T09:02:02;1.40;92.30
55634;DHT22;41504;53.162;6.788;2022-12-16T09:04:46;1.20;92.20
55634;DHT22;41504;53.162;6.788;2022-12-16T09:07:33;1.30;92.20
55634;DHT22;41504;53.162;6.788;2022-12-16T09:10:18;1.40;92.20
55634;DHT22;41504;53.162;6.788;2022-12-16T09:13:10;1.30;92.20
55634;DHT22;41504;53.162;6.788;2022-12-16T09:15:55;1.70;92.30
55634;DHT22;41504;53.162;6.788;2022-12-16T09:18:39;1.40;92.20
55634;DHT22;41504;53.162;6.788;2022-12-16T09:21:23;1.30;92.20
55634;DHT22;41504;53.162;6.788;2022-12-16T09:24:24;1.40;92.20
55634;DHT22;41504;53.162;6.788;2022-12-16T09:27:09;1.30;92.20
55634;DHT22;41504;53.162;6.788;2022-12-16T09:29:53;1.40;92.20
55634;DHT22;41504;53.162;6.788;2022-12-16T09:32:42;1.30;92.20
55634;DHT22;41504;53.162;6.788;2022-12-16T09:35:26;1.30;92.20
55634;DHT22;41504;53.162;6.788;2022-12-16T09:38:10;1.30;92.20
55634;DHT22;41504;53.162;6.788;2022-12-16T09:44:50;1.30;92.30
55634;DHT22;41504;53.162;6.788;2022-12-16T09:51:06;1.40;92.20
55634;DHT22;41504;53.162;6.788;2022-12-16T09:53:52;1.40;92.20
55634;DHT22;41504;53.162;6.788;2022-12-16T09:56:38;1.40;92.20
55634;DHT22;41504;53.162;6.788;2022-12-16T09:59:51;1.50;92.20
55634;DHT22;41504;53.162;6.788;2022-12-16T10:02:38;1.50;92.10
55634;DHT22;41504;53.162;6.788;2022-12-16T10:05:33;1.50;92.10
55634;DHT22;41504;53.162;6.788;2022-12-16T10:08:36;1.50;92.10
55634;DHT22;41504;53.162;6.788;2022-12-16T10:11:52;1.50;92.10
55634;DHT22;41504;53.162;6.788;2022-12-16T10:14:57;1.50;92.20
55634;DHT22;41504;53.162;6.788;2022-12-16T10:17:53;1.50;92.10
55634;DHT22;41504;53.162;6.788;2022-12-16T10:20:50;1.50;92.20
55634;DHT22;41504;53.162;6.788;2022-12-16T10:23:50;1.50;92.10
55634;DHT22;41504;53.162;6.788;2022-12-16T10:26:52;1.60;92.10
55634;DHT22;41504;53.162;6.788;2022-12-16T10:29:42;1.60;92.10
55634;DHT22;41504;53.162;6.788;2022-12-16T10:32:49;1.60;92.10
55634;DHT22;41504;53.162;6.788;2022-12-16T10:35:53;1.60;92.10
55634;DHT22;41504;53.162;6.788;2022-12-16T10:38:54;1.80;92.10
55634;DHT22;41504;53.162;6.788;2022-12-16T10:41:44;1.60;92.00
55634;DHT22;41504;53.162;6.788;2022-12-16T10:44:51;1.60;92.10
55634;DHT22;41504;53.162;6.788;2022-12-16T10:47:36;1.60;92.10
55634;DHT22;41504;53.162;6.788;2022-12-16T10:50:20;1.60;92.10
55634;DHT22;41504;53.162;6.788;2022-12-16T10:53:14;1.60;92.10
55634;DHT22;41504;53.162;6.788;2022-12-16T10:59:23;1.70;92.10
55634;DHT22;41504;53.162;6.788;2022-12-16T11:02:19;1.70;92.10
55634;DHT22;41504;53.162;6.788;2022-12-16T11:08:34;1.70;92.10
55634;DHT22;41504;53.162;6.788;2022-12-16T11:11:28;1.70;92.10
55634;DHT22;41504;53.162;6.788;2022-12-16T11:20:35;1.70;92.10
55634;DHT22;41504;53.162;6.788;2022-12-16T11:23:25;1.70;92.00
55634;DHT22;41504;53.162;6.788;2022-12-16T11:29:10;1.80;92.00
55634;DHT22;41504;53.162;6.788;2022-12-16T11:35:08;1.80;92.00
55634;DHT22;41504;53.162;6.788;2022-12-16T11:37:53;1.80;92.00
55634;DHT22;41504;53.162;6.788;2022-12-16T11:40:39;1.80;92.20
55634;DHT22;41504;53.162;6.788;2022-12-16T11:43:24;1.80;92.00
55634;DHT22;41504;53.162;6.788;2022-12-16T11:46:25;1.80;92.00
55634;DHT22;41504;53.162;6.788;2022-12-16T11:49:36;1.80;92.00
55634;DHT22;41504;53.162;6.788;2022-12-16T11:52:22;1.80;91.90
55634;DHT22;41504;53.162;6.788;2022-12-16T11:55:17;1.80;91.90
55634;DHT22;41504;53.162;6.788;2022-12-16T11:58:25;1.80;91.90
55634;DHT22;41504;53.162;6.788;2022-12-16T12:01:23;2.50;92.00
55634;DHT22;41504;53.162;6.788;2022-12-16T12:04:10;1.70;91.90
55634;DHT22;41504;53.162;6.788;2022-12-16T12:10:38;1.80;92.00
55634;DHT22;41504;53.162;6.788;2022-12-16T12:16:58;1.70;91.90
55634;DHT22;41504;53.162;6.788;2022-12-16T12:22:40;1.80;91.90
55634;DHT22;41504;53.162;6.788;2022-12-16T12:31:37;1.80;91.80
55634;DHT22;41504;53.162;6.788;2022-12-16T12:34:45;1.80;91.80
55634;DHT22;41504;53.162;6.788;2022-12-16T12:38:02;1.80;91.70
55634;DHT22;41504;53.162;6.788;2022-12-16T12:41:10;1.80;91.70
55634;DHT22;41504;53.162;6.788;2022-12-16T12:47:07;1.80;91.70
55634;DHT22;41504;53.162;6.788;2022-12-16T12:50:30;2.00;91.80
55634;DHT22;41504;53.162;6.788;2022-12-16T12:53:33;1.90;91.80
55634;DHT22;41504;53.162;6.788;2022-12-16T12:56:36;2.10;91.80
55634;DHT22;41504;53.162;6.788;2022-12-16T12:59:32;1.90;91.70
55634;DHT22;41504;53.162;6.788;2022-12-16T13:02:24;1.90;91.70
55634;DHT22;41504;53.162;6.788;2022-12-16T13:05:16;2.00;91.70
55634;DHT22;41504;53.162;6.788;2022-12-16T13:11:18;1.90;91.60
55634;DHT22;41504;53.162;6.788;2022-12-16T13:17:14;1.80;91.60
55634;DHT22;41504;53.162;6.788;2022-12-16T13:23:38;1.90;91.70
55634;DHT22;41504;53.162;6.788;2022-12-16T13:26:25;1.90;91.80
55634;DHT22;41504;53.162;6.788;2022-12-16T13:29:30;1.80;91.60
55634;DHT22;41504;53.162;6.788;2022-12-16T13:32:23;1.80;91.60
55634;DHT22;41504;53.162;6.788;2022-12-16T13:35:26;1.80;91.60
55634;DHT22;41504;53.162;6.788;2022-12-16T13:38:19;1.80;91.60
55634;DHT22;41504;53.162;6.788;2022-12-16T13:44:08;1.80;91.60
55634;DHT22;41504;53.162;6.788;2022-12-16T13:46:54;1.80;91.60
55634;DHT22;41504;53.162;6.788;2022-12-16T13:49:43;1.70;91.60
55634;DHT22;41504;53.162;6.788;2022-12-16T13:52:41;1.80;91.60
55634;DHT22;41504;53.162;6.788;2022-12-16T13:58:50;1.70;91.50
55634;DHT22;41504;53.162;6.788;2022-12-16T14:01:53;1.70;91.60
55634;DHT22;41504;53.162;6.788;2022-12-16T14:07:32;1.70;91.70
55634;DHT22;41504;53.162;6.788;2022-12-16T14:10:26;1.80;91.70
55634;DHT22;41504;53.162;6.788;2022-12-16T14:13:20;1.80;91.60
55634;DHT22;41504;53.162;6.788;2022-12-16T14:22:36;1.80;91.70
55634;DHT22;41504;53.162;6.788;2022-12-16T14:25:29;1.80;91.60
55634;DHT22;41504;53.162;6.788;2022-12-16T14:28:28;1.80;91.60
55634;DHT22;41504;53.162;6.788;2022-12-16T14:31:26;1.80;91.60
55634;DHT22;41504;53.162;6.788;2022-12-16T14:34:20;1.70;91.60
55634;DHT22;41504;53.162;6.788;2022-12-16T14:37:28;1.70;91.50
55634;DHT22;41504;53.162;6.788;2022-12-16T14:43:03;1.60;91.50
55634;DHT22;41504;53.162;6.788;2022-12-16T14:45:53;1.60;91.50
55634;DHT22;41504;53.162;6.788;2022-12-16T14:48:38;1.60;91.50
55634;DHT22;41504;53.162;6.788;2022-12-16T14:54:18;1.50;91.50
55634;DHT22;41504;53.162;6.788;2022-12-16T14:57:04;1.50;91.50
55634;DHT22;41504;53.162;6.788;2022-12-16T15:02:58;1.40;91.50
55634;DHT22;41504;53.162;6.788;2022-12-16T15:05:44;1.50;91.60
55634;DHT22;41504;53.162;6.788;2022-12-16T15:08:32;1.40;91.50
55634;DHT22;41504;53.162;6.788;2022-12-16T15:11:20;1.40;91.50
55634;DHT22;41504;53.162;6.788;2022-12-16T15:14:11;1.40;91.50
55634;DHT22;41504;53.162;6.788;2022-12-16T15:16:59;1.40;91.80
55634;DHT22;41504;53.162;6.788;2022-12-16T15:19:49;1.40;91.70
55634;DHT22;41504;53.162;6.788;2022-12-16T15:22:36;1.40;91.60
55634;DHT22;41504;53.162;6.788;2022-12-16T15:25:26;1.30;91.60
55634;DHT22;41504;53.162;6.788;2022-12-16T15:28:40;1.30;91.60
55634;DHT22;41504;53.162;6.788;2022-12-16T15:31:30;1.30;91.70
55634;DHT22;41504;53.162;6.788;2022-12-16T15:37:23;1.30;91.70
55634;DHT22;41504;53.162;6.788;2022-12-16T15:40:25;1.30;91.80
55634;DHT22;41504;53.162;6.788;2022-12-16T15:43:27;1.30;91.80
55634;DHT22;41504;53.162;6.788;2022-12-16T15:46:20;1.30;91.80
55634;DHT22;41504;53.162;6.788;2022-12-16T15:49:30;1.40;91.80
55634;DHT22;41504;53.162;6.788;2022-12-16T15:55:38;1.30;91.80
55634;DHT22;41504;53.162;6.788;2022-12-16T15:58:24;1.20;91.90
55634;DHT22;41504;53.162;6.788;2022-12-16T16:01:10;1.20;91.90
55634;DHT22;41504;53.162;6.788;2022-12-16T16:03:55;1.30;92.00
55634;DHT22;41504;53.162;6.788;2022-12-16T16:06:47;1.30;91.90
55634;DHT22;41504;53.162;6.788;2022-12-16T16:09:34;1.30;91.80
55634;DHT22;41504;53.162;6.788;2022-12-16T16:12:20;1.30;92.10
55634;DHT22;41504;53.162;6.788;2022-12-16T16:15:07;1.30;91.80
55634;DHT22;41504;53.162;6.788;2022-12-16T16:17:57;1.30;91.80
55634;DHT22;41504;53.162;6.788;2022-12-16T16:20:42;1.30;91.90
55634;DHT22;41504;53.162;6.788;2022-12-16T16:23:27;1.30;91.90
55634;DHT22;41504;53.162;6.788;2022-12-16T16:26:14;1.30;91.90
55634;DHT22;41504;53.162;6.788;2022-12-16T16:29:02;1.30;91.80
55634;DHT22;41504;53.162;6.788;2022-12-16T16:31:46;1.30;91.90
55634;DHT22;41504;53.162;6.788;2022-12-16T16:34:36;1.20;91.90
55634;DHT22;41504;53.162;6.788;2022-12-16T16:37:21;1.30;92.00
55634;DHT22;41504;53.162;6.788;2022-12-16T16:40:21;1.30;91.90
55634;DHT22;41504;53.162;6.788;2022-12-16T16:43:08;1.30;91.90
55634;DHT22;41504;53.162;6.788;2022-12-16T16:45:54;1.30;91.90
55634;DHT22;41504;53.162;6.788;2022-12-16T16:48:39;1.30;91.90
55634;DHT22;41504;53.162;6.788;2022-12-16T16:51:24;1.20;91.90
55634;DHT22;41504;53.162;6.788;2022-12-16T16:54:08;1.20;92.00
55634;DHT22;41504;53.162;6.788;2022-12-16T16:56:55;1.30;92.00
55634;DHT22;41504;53.162;6.788;2022-12-16T16:59:39;1.30;91.90
55634;DHT22;41504;53.162;6.788;2022-12-16T17:02:24;1.30;91.90
55634;DHT22;41504;53.162;6.788;2022-12-16T17:05:10;1.30;91.90
55634;DHT22;41504;53.162;6.788;2022-12-16T17:07:55;1.30;91.80
55634;DHT22;41504;53.162;6.788;2022-12-16T17:10:39;1.30;91.80
55634;DHT22;41504;53.162;6.788;2022-12-16T17:13:23;1.30;91.90
55634;DHT22;41504;53.162;6.788;2022-12-16T17:16:10;1.40;91.90
55634;DHT22;41504;53.162;6.788;2022-12-16T17:18:54;1.40;91.90
55634;DHT22;41504;53.162;6.788;2022-12-16T17:21:39;1.40;91.80
55634;DHT22;41504;53.162;6.788;2022-12-16T17:24:23;1.40;91.80
55634;DHT22;41504;53.162;6.788;2022-12-16T17:27:22;1.40;91.80
55634;DHT22;41504;53.162;6.788;2022-12-16T17:30:16;1.30;91.70
55634;DHT22;41504;53.162;6.788;2022-12-16T17:33:02;1.30;91.70
55634;DHT22;41504;53.162;6.788;2022-12-16T17:35:48;1.30;91.80
55634;DHT22;41504;53.162;6.788;2022-12-16T17:38:37;1.30;91.80
55634;DHT22;41504;53.162;6.788;2022-12-16T17:41:24;1.30;91.90
55634;DHT22;41504;53.162;6.788;2022-12-16T17:44:12;1.30;91.80
55634;DHT22;41504;53.162;6.788;2022-12-16T17:46:56;1.40;91.70
55634;DHT22;41504;53.162;6.788;2022-12-16T17:49:49;1.30;91.70
55634;DHT22;41504;53.162;6.788;2022-12-16T17:52:36;1.20;91.80
55634;DHT22;41504;53.162;6.788;2022-12-16T17:55:20;1.20;91.80
55634;DHT22;41504;53.162;6.788;2022-12-16T17:58:04;1.20;91.90
55634;DHT22;41504;53.162;6.788;2022-12-16T18:00:49;1.20;91.90
55634;DHT22;41504;53.162;6.788;2022-12-16T18:03:33;1.40;92.00
55634;DHT22;41504;53.162;6.788;2022-12-16T18:06:17;1.20;92.00
55634;DHT22;41504;53.162;6.788;2022-12-16T18:09:02;1.20;91.90
55634;DHT22;41504;53.162;6.788;2022-12-16T18:11:46;1.20;92.00
55634;DHT22;41504;53.162;6.788;2022-12-16T18:14:34;1.20;91.90
55634;DHT22;41504;53.162;6.788;2022-12-16T18:17:18;1.20;91.90
55634;DHT22;41504;53.162;6.788;2022-12-16T18:20:02;1.10;92.00
55634;DHT22;41504;53.162;6.788;2022-12-16T18:22:56;1.10;92.00
55634;DHT22;41504;53.162;6.788;2022-12-16T18:25:40;1.10;92.10
55634;DHT22;41504;53.162;6.788;2022-12-16T18:28:25;1.20;92.10
55634;DHT22;41504;53.162;6.788;2022-12-16T18:31:13;1.10;92.00
55634;DHT22;41504;53.162;6.788;2022-12-16T18:36:42;1.00;91.90
55634;DHT22;41504;53.162;6.788;2022-12-16T18:39:37;1.00;92.10
55634;DHT22;41504;53.162;6.788;2022-12-16T18:42:21;1.00;92.00
55634;DHT22;41504;53.162;6.788;2022-12-16T18:45:06;0.90;92.10
55634;DHT22;41504;53.162;6.788;2022-12-16T18:47:50;0.90;92.10
55634;DHT22;41504;53.162;6.788;2022-12-16T18:50:35;0.90;92.20
55634;DHT22;41504;53.162;6.788;2022-12-16T18:53:19;0.80;92.20
55634;DHT22;41504;53.162;6.788;2022-12-16T18:56:08;1.00;92.30
55634;DHT22;41504;53.162;6.788;2022-12-16T18:58:52;0.80;92.20
55634;DHT22;41504;53.162;6.788;2022-12-16T19:01:39;0.80;92.30
55634;DHT22;41504;53.162;6.788;2022-12-16T19:04:24;1.60;92.40
55634;DHT22;41504;53.162;6.788;2022-12-16T19:07:09;0.70;92.20
55634;DHT22;41504;53.162;6.788;2022-12-16T19:09:53;0.60;92.10
55634;DHT22;41504;53.162;6.788;2022-12-16T19:12:38;0.80;92.20
55634;DHT22;41504;53.162;6.788;2022-12-16T19:15:22;0.50;92.30
55634;DHT22;41504;53.162;6.788;2022-12-16T19:18:06;0.40;92.30
55634;DHT22;41504;53.162;6.788;2022-12-16T19:20:51;0.40;92.20
55634;DHT22;41504;53.162;6.788;2022-12-16T19:23:36;0.70;92.40
55634;DHT22;41504;53.162;6.788;2022-12-16T19:26:20;0.30;92.30